Terminal Aerodrome Forecast
Issued by NWS

Home | Current Version | Previous Version | Text Only | Print | Product List | Glossary On
Versions: 1 2 3 4 5 6 7 8 9 10 11 12 13 14 15 16
895
FTUS46 KSGX 242320
TAFONT
TAF
KONT 242320Z 2500/2606 26008KT P6SM SCT200
     FM250200 VRB06KT P6SM SCT200
     FM252200 25008KT P6SM BKN150
     FM260500 VRB06KT P6SM BKN100=

USA.gov is the U.S. government's official web portal to all federal, state and local government web resources and services.